createdAt,value
2017-08-23T00:02:05.120Z,82.30
2017-08-23T00:04:32.615Z,82.70
2017-08-23T00:07:00.092Z,82.80
2017-08-23T00:09:27.588Z,83.20
2017-08-23T00:11:55.063Z,83.30
2017-08-23T00:14:22.560Z,83.20
2017-08-23T00:16:50.031Z,83.20
2017-08-23T00:19:17.527Z,83.50
2017-08-23T00:21:45.002Z,83.40
2017-08-23T00:24:12.496Z,83.60
2017-08-23T00:26:39.976Z,83.50
2017-08-23T00:29:07.463Z,83.20
2017-08-23T00:31:34.935Z,83.70
2017-08-23T00:34:02.432Z,84.50
2017-08-23T00:36:29.910Z,84.10
2017-08-23T00:38:57.407Z,84.80
2017-08-23T00:41:24.884Z,84.80
2017-08-23T00:43:52.371Z,84.80
2017-08-23T00:46:19.847Z,84.70
2017-08-23T00:48:47.347Z,84.80
2017-08-23T00:51:14.840Z,85.00
2017-08-23T00:53:42.327Z,85.20
2017-08-23T00:56:09.809Z,85.60
2017-08-23T00:58:37.322Z,85.60
2017-08-23T01:01:04.808Z,85.70
2017-08-23T01:03:32.316Z,85.70
2017-08-23T01:05:59.807Z,85.70
2017-08-23T01:08:27.289Z,85.60
2017-08-23T01:10:54.784Z,85.40
2017-08-23T01:13:22.263Z,85.50
2017-08-23T01:15:49.763Z,85.90
2017-08-23T01:18:17.249Z,85.70
2017-08-23T01:20:44.743Z,85.40
2017-08-23T01:23:12.227Z,85.70
2017-08-23T01:25:39.738Z,85.60
2017-08-23T01:28:07.212Z,85.70
2017-08-23T01:30:34.703Z,85.90
2017-08-23T01:33:02.183Z,85.90
2017-08-23T01:35:29.676Z,85.70
2017-08-23T01:37:57.152Z,85.80
2017-08-23T01:40:24.651Z,85.60
2017-08-23T01:42:52.127Z,85.50
2017-08-23T01:45:19.638Z,85.70
2017-08-23T01:47:47.129Z,85.60
2017-08-23T01:50:14.620Z,85.90
2017-08-23T01:52:42.091Z,85.80
2017-08-23T01:55:09.583Z,85.80
2017-08-23T01:57:37.083Z,85.50
2017-08-23T02:00:04.572Z,85.70
2017-08-23T02:02:32.052Z,86.00
2017-08-23T02:04:59.556Z,86.00
2017-08-23T02:07:27.028Z,85.90
2017-08-23T02:09:54.520Z,85.60
2017-08-23T02:12:22.004Z,85.30
2017-08-23T02:14:49.512Z,85.30
2017-08-23T02:17:16.992Z,85.60
2017-08-23T02:19:44.524Z,85.60
2017-08-23T02:22:12.059Z,85.80
2017-08-23T02:24:39.531Z,85.70
2017-08-23T02:27:07.027Z,85.70
2017-08-23T02:29:34.512Z,85.60
2017-08-23T02:32:02.007Z,85.60
2017-08-23T02:34:29.479Z,85.70
2017-08-23T02:36:56.963Z,85.50
2017-08-23T02:39:24.444Z,85.70
2017-08-23T02:41:51.935Z,85.70
2017-08-23T02:44:19.407Z,85.50
2017-08-23T02:46:46.905Z,85.60
2017-08-23T02:49:14.393Z,85.70
2017-08-23T02:51:41.892Z,85.60
2017-08-23T02:54:09.368Z,86.20
2017-08-23T02:56:36.876Z,85.90
2017-08-23T02:59:04.360Z,86.00
2017-08-23T03:01:31.861Z,85.70
2017-08-23T03:03:59.349Z,85.90
2017-08-23T03:06:26.854Z,86.30
2017-08-23T03:08:54.340Z,86.30
2017-08-23T03:11:21.844Z,86.10
2017-08-23T03:13:49.312Z,86.00
2017-08-23T03:16:16.813Z,85.90
2017-08-23T03:18:44.309Z,85.90
2017-08-23T03:21:11.818Z,85.90
2017-08-23T03:23:39.292Z,85.80
2017-08-23T03:26:06.864Z,85.80
2017-08-23T03:28:34.340Z,85.70
2017-08-23T03:31:01.844Z,85.70
2017-08-23T03:33:29.331Z,85.60
2017-08-23T03:35:56.820Z,85.90
2017-08-23T03:38:24.297Z,85.80
2017-08-23T03:40:51.784Z,85.70
2017-08-23T03:43:19.288Z,85.90
2017-08-23T03:45:46.763Z,85.80
2017-08-23T03:48:15.023Z,85.80
2017-08-23T03:50:42.500Z,85.80
2017-08-23T03:53:09.996Z,85.80
2017-08-23T03:55:37.481Z,86.20
2017-08-23T03:58:04.984Z,86.30
2017-08-23T04:00:32.471Z,86.40
2017-08-23T04:02:59.972Z,86.40
2017-08-23T04:05:28.223Z,86.40
2017-08-23T04:07:55.720Z,86.30
2017-08-23T04:10:23.200Z,86.40
2017-08-23T04:12:50.687Z,86.30
2017-08-23T04:15:18.168Z,86.20
2017-08-23T04:17:45.664Z,86.30
2017-08-23T04:20:13.144Z,86.60
2017-08-23T04:22:40.642Z,86.50
2017-08-23T04:25:08.111Z,86.60
2017-08-23T04:27:36.584Z,86.50
2017-08-23T04:30:04.088Z,86.90
2017-08-23T04:32:31.568Z,86.90
2017-08-23T04:34:59.063Z,86.70
2017-08-23T04:37:26.544Z,86.90
2017-08-23T04:39:54.044Z,87.00
2017-08-23T04:42:21.527Z,86.90
2017-08-23T04:44:49.020Z,87.30
2017-08-23T04:47:16.496Z,87.50
2017-08-23T04:49:43.995Z,87.70
2017-08-23T04:52:11.472Z,87.50
2017-08-23T04:54:38.972Z,87.90
2017-08-23T04:57:06.452Z,87.60
2017-08-23T04:59:33.956Z,87.80
2017-08-23T05:02:01.432Z,88.00
2017-08-23T05:04:28.924Z,87.90
2017-08-23T05:06:56.405Z,87.80
2017-08-23T05:09:23.891Z,87.90
2017-08-23T05:11:51.363Z,87.80
2017-08-23T05:14:18.859Z,87.80
2017-08-23T05:16:46.337Z,87.80
2017-08-23T05:19:13.834Z,87.60
2017-08-23T05:21:41.308Z,87.60
2017-08-23T05:24:08.784Z,87.70
2017-08-23T05:26:36.276Z,87.80
2017-08-23T05:29:03.760Z,87.60
2017-08-23T05:31:31.268Z,87.10
2017-08-23T05:33:58.745Z,87.10
2017-08-23T05:36:26.248Z,87.00
2017-08-23T05:38:53.732Z,87.00
2017-08-23T05:41:21.233Z,87.30
2017-08-23T05:43:48.717Z,87.30
2017-08-23T05:46:16.223Z,87.30
2017-08-23T05:48:43.718Z,87.30
2017-08-23T05:51:11.211Z,86.70
2017-08-23T05:53:38.703Z,86.70
2017-08-23T05:56:06.199Z,86.80
2017-08-23T05:58:33.672Z,86.30
2017-08-23T06:01:01.173Z,86.00
2017-08-23T06:03:28.656Z,85.80
2017-08-23T06:05:56.179Z,86.20
2017-08-23T06:08:23.665Z,85.80
2017-08-23T06:10:51.172Z,85.70
2017-08-23T06:13:18.648Z,85.90
2017-08-23T06:15:46.160Z,84.90
2017-08-23T06:18:13.644Z,84.80
2017-08-23T06:20:41.128Z,84.90
2017-08-23T06:23:08.634Z,84.30
2017-08-23T06:25:36.108Z,84.10
2017-08-23T06:28:03.603Z,84.30
2017-08-23T06:30:31.075Z,84.10
2017-08-23T06:32:58.584Z,84.60
2017-08-23T06:35:26.060Z,84.30
2017-08-23T06:37:53.558Z,83.90
2017-08-23T06:40:21.040Z,83.90
2017-08-23T06:42:48.536Z,84.20
2017-08-23T06:45:16.012Z,84.00
2017-08-23T06:47:43.517Z,83.60
2017-08-23T06:50:10.992Z,83.60
2017-08-23T06:52:38.492Z,83.70
2017-08-23T06:55:05.970Z,83.10
2017-08-23T06:57:33.472Z,82.80
2017-08-23T07:00:00.960Z,82.30
2017-08-23T07:02:28.457Z,80.50
2017-08-23T07:04:55.939Z,79.00
2017-08-23T07:07:23.438Z,76.60
2017-08-23T07:09:50.907Z,73.60
2017-08-23T07:12:18.416Z,70.60
2017-08-23T07:14:45.904Z,69.50
2017-08-23T07:17:14.185Z,65.80
2017-08-23T07:19:41.664Z,65.70
2017-08-23T07:22:09.135Z,65.00
2017-08-23T07:24:36.656Z,64.50
2017-08-23T07:27:04.139Z,65.00
2017-08-23T07:29:32.049Z,64.70
2017-08-23T07:31:59.528Z,64.70
2017-08-23T07:34:27.035Z,65.30
2017-08-23T07:36:54.512Z,67.40
2017-08-23T07:39:22.008Z,68.60
2017-08-23T07:41:49.496Z,70.30
2017-08-23T07:44:17.004Z,70.80
2017-08-23T07:46:44.484Z,70.40
2017-08-23T07:49:12.000Z,71.00
2017-08-23T07:51:39.476Z,71.80
2017-08-23T07:54:06.985Z,70.90
2017-08-23T07:56:34.465Z,71.10
2017-08-23T07:59:01.973Z,70.30
2017-08-23T08:01:29.462Z,69.60
2017-08-23T08:03:56.974Z,68.50
2017-08-23T08:06:24.456Z,69.10
2017-08-23T08:08:51.949Z,68.20
2017-08-23T08:11:19.423Z,67.20
2017-08-23T08:13:46.920Z,67.20
2017-08-23T08:16:14.399Z,65.80
2017-08-23T08:18:41.885Z,64.90
2017-08-23T08:21:09.380Z,65.40
2017-08-23T08:23:36.855Z,65.70
2017-08-23T08:26:04.365Z,64.30
2017-08-23T08:28:31.847Z,63.80
2017-08-23T08:30:59.344Z,63.50
2017-08-23T08:33:26.828Z,62.80
2017-08-23T08:35:54.324Z,63.50
2017-08-23T08:38:21.822Z,62.20
2017-08-23T08:40:49.324Z,62.10
2017-08-23T08:43:16.803Z,62.40
2017-08-23T08:45:44.325Z,62.60
2017-08-23T08:48:11.813Z,62.50
2017-08-23T08:50:39.342Z,63.30
2017-08-23T08:53:06.814Z,65.00
2017-08-23T08:55:34.307Z,65.30
2017-08-23T08:58:01.804Z,64.40
2017-08-23T09:00:30.083Z,65.00
2017-08-23T09:02:57.567Z,65.00
2017-08-23T09:05:25.073Z,65.90
2017-08-23T09:07:52.567Z,64.90
2017-08-23T09:10:20.068Z,64.50
2017-08-23T09:12:47.893Z,63.90
2017-08-23T09:15:15.392Z,64.50
2017-08-23T09:17:42.899Z,64.10
2017-08-23T09:20:10.435Z,62.90
2017-08-23T09:22:37.938Z,61.10
2017-08-23T09:25:05.461Z,61.00
2017-08-23T09:27:32.989Z,61.90
2017-08-23T09:30:01.533Z,62.60
2017-08-23T09:32:29.968Z,62.10
2017-08-23T09:34:57.444Z,62.60
2017-08-23T09:37:25.888Z,62.50
2017-08-23T09:39:54.214Z,62.70
2017-08-23T09:42:21.750Z,63.10
2017-08-23T09:44:49.231Z,63.00
2017-08-23T09:47:16.724Z,62.40
2017-08-23T09:49:44.208Z,61.70
2017-08-23T09:52:11.708Z,62.00
2017-08-23T09:54:47.112Z,61.90
2017-08-23T09:57:14.617Z,61.70
2017-08-23T09:59:42.100Z,61.50
2017-08-23T10:02:09.604Z,62.20
2017-08-23T10:04:37.104Z,62.50
2017-08-23T10:07:04.604Z,62.00
2017-08-23T10:09:32.091Z,62.10
2017-08-23T10:11:59.609Z,62.30
2017-08-23T10:14:27.097Z,61.50
2017-08-23T10:16:54.601Z,60.60
2017-08-23T10:19:22.110Z,61.50
2017-08-23T10:21:49.616Z,59.40
2017-08-23T10:24:17.091Z,60.80
2017-08-23T10:26:44.574Z,59.80
2017-08-23T10:29:12.324Z,59.40
2017-08-23T10:31:39.855Z,60.00
2017-08-23T10:34:07.460Z,60.00
2017-08-23T10:36:34.973Z,59.70
2017-08-23T10:39:02.658Z,60.00
2017-08-23T10:41:30.144Z,59.50
2017-08-23T10:43:57.657Z,59.00
2017-08-23T10:46:25.178Z,58.40
2017-08-23T10:48:52.772Z,58.10
2017-08-23T10:51:20.319Z,57.90
2017-08-23T10:53:47.844Z,58.00
2017-08-23T10:56:15.356Z,57.20
2017-08-23T10:58:42.925Z,56.80
2017-08-23T11:01:10.469Z,57.50
2017-08-23T11:03:38.071Z,57.10
2017-08-23T11:06:05.614Z,56.60
2017-08-23T11:08:33.245Z,57.60
2017-08-23T11:11:00.741Z,56.70
2017-08-23T11:13:28.245Z,56.30
2017-08-23T11:15:55.741Z,56.80
2017-08-23T11:18:23.294Z,57.20
2017-08-23T11:20:50.816Z,56.90
2017-08-23T11:23:18.323Z,56.40
2017-08-23T11:25:45.803Z,56.80
2017-08-23T11:28:13.291Z,57.00
2017-08-23T11:30:40.789Z,57.00
2017-08-23T11:33:08.277Z,56.90
2017-08-23T11:35:35.837Z,56.50
2017-08-23T11:38:03.320Z,56.70
2017-08-23T11:40:31.617Z,56.80
2017-08-23T11:43:01.349Z,56.20
2017-08-23T11:45:29.072Z,56.30
2017-08-23T11:47:56.604Z,57.00
2017-08-23T11:50:24.143Z,56.90
2017-08-23T11:52:51.615Z,56.80
2017-08-23T11:55:19.162Z,57.20
2017-08-23T11:57:46.680Z,59.10
2017-08-23T12:00:14.179Z,58.50
2017-08-23T12:02:41.772Z,58.40
2017-08-23T12:05:09.271Z,58.10
2017-08-23T12:07:36.868Z,58.50
2017-08-23T12:10:04.474Z,58.90
2017-08-23T12:12:31.954Z,58.90
2017-08-23T12:14:59.556Z,59.50
2017-08-23T12:17:27.057Z,60.20
2017-08-23T12:19:54.579Z,60.00
2017-08-23T12:22:22.059Z,59.30
2017-08-23T12:24:49.648Z,59.40
2017-08-23T12:27:17.957Z,60.30
2017-08-23T12:29:45.437Z,60.20
2017-08-23T12:32:12.924Z,59.50
2017-08-23T12:34:40.444Z,60.00
2017-08-23T12:37:07.943Z,59.80
2017-08-23T12:39:35.423Z,59.80
2017-08-23T12:42:02.924Z,59.60
2017-08-23T12:44:30.404Z,59.90
2017-08-23T12:46:57.895Z,59.90
2017-08-23T12:49:25.376Z,60.60
2017-08-23T12:51:52.876Z,60.70
2017-08-23T12:54:20.374Z,60.40
2017-08-23T12:56:47.876Z,60.80
2017-08-23T12:59:15.352Z,60.70
2017-08-23T13:01:42.847Z,61.20
2017-08-23T13:04:10.326Z,62.20
2017-08-23T13:06:37.872Z,61.80
2017-08-23T13:09:05.368Z,61.40
2017-08-23T13:11:32.863Z,61.10
2017-08-23T13:14:00.347Z,61.00
2017-08-23T13:16:27.850Z,62.20
2017-08-23T13:18:55.331Z,63.20
2017-08-23T13:21:22.824Z,63.40
2017-08-23T13:23:50.296Z,62.90
2017-08-23T13:26:17.795Z,63.10
2017-08-23T13:28:45.275Z,62.30
2017-08-23T13:31:12.747Z,62.00
2017-08-23T13:33:40.244Z,61.80
2017-08-23T13:36:07.721Z,62.40
2017-08-23T13:38:35.219Z,62.10
2017-08-23T13:41:02.808Z,61.10
2017-08-23T13:43:30.329Z,61.80
2017-08-23T13:45:57.816Z,61.90
2017-08-23T13:48:25.352Z,62.50
2017-08-23T13:50:52.845Z,61.70
2017-08-23T13:53:20.372Z,62.20
2017-08-23T13:55:47.926Z,61.60
2017-08-23T13:58:15.440Z,61.80
2017-08-23T14:00:42.928Z,62.10
2017-08-23T14:03:10.446Z,62.10
2017-08-23T14:05:37.932Z,62.10
2017-08-23T14:08:05.443Z,62.30
2017-08-23T14:10:32.931Z,62.20
2017-08-23T14:13:00.438Z,62.80
2017-08-23T14:15:27.924Z,63.00
2017-08-23T14:17:55.421Z,62.40
2017-08-23T14:20:22.887Z,62.70
2017-08-23T14:22:50.388Z,63.00
2017-08-23T14:25:17.868Z,63.00
2017-08-23T14:27:45.360Z,63.80
2017-08-23T14:30:12.864Z,63.50
2017-08-23T14:32:40.339Z,62.40
2017-08-23T14:35:07.863Z,62.40
2017-08-23T14:37:35.344Z,63.40
2017-08-23T14:40:02.840Z,63.70
2017-08-23T14:42:30.315Z,64.10
2017-08-23T14:44:57.842Z,64.70
2017-08-23T14:47:25.352Z,64.10
2017-08-23T14:49:52.856Z,62.50
2017-08-23T14:52:20.336Z,63.00
2017-08-23T14:54:47.832Z,62.90
2017-08-23T14:57:15.305Z,63.20
2017-08-23T14:59:42.799Z,63.50
2017-08-23T15:02:10.281Z,62.80
2017-08-23T15:04:37.776Z,61.10
2017-08-23T15:07:05.264Z,61.30
2017-08-23T15:09:32.765Z,62.60
2017-08-23T15:12:00.247Z,63.60
2017-08-23T15:14:27.753Z,63.90
2017-08-23T15:16:55.241Z,63.00
2017-08-23T15:19:22.737Z,62.80
2017-08-23T15:21:50.222Z,63.00
2017-08-23T15:24:18.717Z,63.70
2017-08-23T15:26:46.199Z,64.00
2017-08-23T15:29:13.676Z,62.50
2017-08-23T15:31:41.171Z,62.40
2017-08-23T15:34:08.673Z,61.30
2017-08-23T15:36:36.183Z,58.70
2017-08-23T15:39:03.668Z,58.60
2017-08-23T15:41:31.178Z,58.40
2017-08-23T15:43:58.660Z,59.10
2017-08-23T15:46:26.155Z,59.10
2017-08-23T15:48:53.648Z,60.90
2017-08-23T15:51:21.161Z,59.60
2017-08-23T15:53:48.648Z,59.80
2017-08-23T15:56:16.144Z,58.30
2017-08-23T15:58:43.620Z,58.50
2017-08-23T16:01:11.121Z,58.40
2017-08-23T16:03:38.596Z,58.40
2017-08-23T16:06:06.106Z,58.50
2017-08-23T16:08:33.604Z,58.50
2017-08-23T16:11:01.107Z,61.40
2017-08-23T16:13:28.593Z,63.40
2017-08-23T16:15:56.088Z,63.90
2017-08-23T16:18:23.566Z,64.90
2017-08-23T16:20:51.064Z,63.70
2017-08-23T16:23:18.540Z,64.30
2017-08-23T16:25:46.073Z,65.00
2017-08-23T16:28:13.539Z,65.40
2017-08-23T16:30:41.020Z,65.50
2017-08-23T16:33:08.524Z,65.60
2017-08-23T16:35:36.020Z,66.00
2017-08-23T16:38:03.556Z,66.20
2017-08-23T16:40:31.055Z,66.40
2017-08-23T16:42:58.557Z,66.70
2017-08-23T16:45:26.044Z,67.30
2017-08-23T16:47:53.540Z,67.10
2017-08-23T16:50:22.004Z,67.40
2017-08-23T16:52:49.506Z,67.60
2017-08-23T16:55:16.991Z,67.80
2017-08-23T16:57:44.483Z,68.30
2017-08-23T17:00:11.982Z,68.50
2017-08-23T17:02:39.501Z,68.40
2017-08-23T17:05:06.987Z,68.70
2017-08-23T17:07:34.504Z,68.60
2017-08-23T17:10:01.985Z,68.70
2017-08-23T17:12:29.479Z,69.00
2017-08-23T17:14:56.963Z,68.70
2017-08-23T17:17:24.468Z,68.50
2017-08-23T17:19:51.949Z,68.60
2017-08-23T17:22:19.443Z,68.60
2017-08-23T17:24:46.924Z,68.90
2017-08-23T17:27:14.424Z,69.00
2017-08-23T17:29:41.901Z,69.10
2017-08-23T17:32:09.380Z,69.30
2017-08-23T17:34:36.884Z,70.50
2017-08-23T17:37:04.483Z,71.00
2017-08-23T17:39:31.984Z,69.50
2017-08-23T17:41:59.459Z,70.60
2017-08-23T17:44:26.964Z,70.70
2017-08-23T17:46:54.463Z,70.90
2017-08-23T17:49:21.968Z,71.40
2017-08-23T17:51:49.448Z,71.30
2017-08-23T17:54:16.952Z,71.50
2017-08-23T17:56:44.449Z,73.10
2017-08-23T17:59:11.944Z,73.70
2017-08-23T18:01:39.428Z,74.80
2017-08-23T18:04:06.928Z,74.90
2017-08-23T18:06:34.405Z,75.70
2017-08-23T18:09:01.912Z,76.10
2017-08-23T18:11:29.400Z,76.90
2017-08-23T18:13:56.908Z,78.90
2017-08-23T18:16:24.400Z,80.00
2017-08-23T18:18:51.909Z,79.80
2017-08-23T18:21:19.387Z,81.50
2017-08-23T18:23:46.890Z,82.30
2017-08-23T18:26:14.396Z,81.40
2017-08-23T18:28:41.923Z,81.50
2017-08-23T18:31:09.406Z,81.30
2017-08-23T18:33:36.892Z,81.40
2017-08-23T18:36:04.401Z,81.10
2017-08-23T18:38:31.887Z,81.20
2017-08-23T18:40:59.389Z,81.30
2017-08-23T18:43:26.865Z,81.10
2017-08-23T18:45:54.375Z,81.60
2017-08-23T18:48:21.856Z,81.70
2017-08-23T18:50:49.360Z,82.10
2017-08-23T18:53:16.848Z,82.20
2017-08-23T18:55:44.352Z,82.20
2017-08-23T18:58:11.840Z,81.80
2017-08-23T19:00:39.344Z,81.20
2017-08-23T19:03:06.820Z,81.60
2017-08-23T19:05:34.324Z,81.50
2017-08-23T19:08:01.796Z,81.40
2017-08-23T19:10:29.299Z,81.20
2017-08-23T19:12:56.777Z,81.20
2017-08-23T19:15:24.271Z,82.20
2017-08-23T19:17:51.752Z,82.40
2017-08-23T19:20:19.251Z,82.20
2017-08-23T19:22:46.736Z,81.40
2017-08-23T19:25:14.237Z,81.40
2017-08-23T19:27:41.724Z,81.50
2017-08-23T19:30:09.208Z,81.20
2017-08-23T19:32:36.713Z,81.30
2017-08-23T19:35:04.216Z,81.60
2017-08-23T19:37:31.724Z,81.70
2017-08-23T19:39:59.208Z,81.90
2017-08-23T19:42:26.703Z,81.90
2017-08-23T19:44:54.179Z,82.00
2017-08-23T19:47:21.684Z,81.90
2017-08-23T19:49:49.159Z,82.00
2017-08-23T19:52:16.656Z,82.00
2017-08-23T19:54:44.136Z,81.90
2017-08-23T19:57:11.637Z,82.00
2017-08-23T19:59:39.111Z,82.10
2017-08-23T20:02:06.603Z,83.00
2017-08-23T20:04:34.079Z,82.30
2017-08-23T20:07:01.588Z,81.90
2017-08-23T20:09:29.069Z,81.40
2017-08-23T20:11:56.572Z,81.00
2017-08-23T20:14:24.056Z,81.20
2017-08-23T20:16:51.552Z,81.30
2017-08-23T20:19:19.037Z,81.10
2017-08-23T20:21:47.296Z,81.90
2017-08-23T20:24:14.782Z,81.90
2017-08-23T20:26:42.295Z,81.90
2017-08-23T20:29:09.777Z,81.90
2017-08-23T20:31:37.260Z,81.90
2017-08-23T20:34:04.756Z,81.80
2017-08-23T20:36:32.225Z,81.20
2017-08-23T20:38:59.719Z,80.90
2017-08-23T20:41:27.205Z,81.50
2017-08-23T20:43:54.708Z,82.00
2017-08-23T20:46:22.188Z,82.00
2017-08-23T20:48:49.692Z,82.00
2017-08-23T20:51:17.167Z,81.90
2017-08-23T20:53:44.672Z,82.10
2017-08-23T20:56:12.161Z,82.10
2017-08-23T20:58:39.668Z,81.90
2017-08-23T21:01:07.152Z,81.70
2017-08-23T21:03:34.648Z,81.80
2017-08-23T21:06:02.136Z,81.80
2017-08-23T21:08:29.636Z,82.00
2017-08-23T21:10:57.112Z,82.20
2017-08-23T21:13:24.613Z,82.30
2017-08-23T21:15:52.090Z,82.70
2017-08-23T21:18:19.598Z,83.30
2017-08-23T21:20:47.092Z,83.50
2017-08-23T21:23:14.600Z,84.10
2017-08-23T21:25:42.084Z,84.30
2017-08-23T21:28:09.609Z,84.60
2017-08-23T21:30:37.091Z,84.70
2017-08-23T21:33:04.580Z,84.80
2017-08-23T21:35:32.076Z,84.80
2017-08-23T21:37:59.550Z,84.80
2017-08-23T21:40:27.056Z,85.00
2017-08-23T21:42:54.540Z,85.20
2017-08-23T21:45:22.080Z,85.00
2017-08-23T21:47:49.568Z,84.60
2017-08-23T21:50:17.062Z,84.20
2017-08-23T21:52:44.540Z,84.30
2017-08-23T21:55:12.044Z,85.40
2017-08-23T21:57:39.530Z,84.70
2017-08-23T22:00:07.020Z,84.70
2017-08-23T22:02:34.508Z,84.50
2017-08-23T22:05:02.009Z,83.80
2017-08-23T22:07:29.491Z,83.70
2017-08-23T22:09:56.987Z,84.00
2017-08-23T22:12:24.465Z,84.60
2017-08-23T22:14:51.963Z,84.90
2017-08-23T22:17:19.434Z,84.80
2017-08-23T22:19:46.927Z,84.80
2017-08-23T22:22:14.401Z,84.70
2017-08-23T22:24:41.896Z,84.50
2017-08-23T22:27:09.372Z,84.50
2017-08-23T22:29:36.884Z,84.40
2017-08-23T22:32:04.364Z,84.10
2017-08-23T22:34:31.847Z,83.60
2017-08-23T22:36:59.340Z,83.90
2017-08-23T22:39:26.822Z,83.80
2017-08-23T22:41:54.324Z,83.70
2017-08-23T22:44:21.795Z,83.90
2017-08-23T22:46:49.287Z,84.00
2017-08-23T22:49:16.768Z,84.10
2017-08-23T22:51:44.259Z,84.10
2017-08-23T22:54:11.733Z,84.60
2017-08-23T22:56:39.243Z,85.80
2017-08-23T22:59:06.721Z,86.50
2017-08-23T23:01:34.217Z,86.70
2017-08-23T23:04:01.704Z,87.00
2017-08-23T23:06:30.052Z,87.10
2017-08-23T23:08:57.524Z,87.20
2017-08-23T23:11:25.015Z,87.50
2017-08-23T23:13:52.496Z,87.50
2017-08-23T23:16:19.996Z,87.60
2017-08-23T23:18:47.467Z,88.10
2017-08-23T23:21:14.963Z,88.10
2017-08-23T23:23:42.447Z,88.30
2017-08-23T23:26:09.952Z,88.30
2017-08-23T23:28:37.433Z,88.30
2017-08-23T23:31:04.948Z,88.60
2017-08-23T23:33:32.432Z,88.60
2017-08-23T23:35:59.915Z,88.20
2017-08-23T23:38:27.425Z,88.40
2017-08-23T23:40:54.907Z,88.70
2017-08-23T23:43:22.404Z,88.90
2017-08-23T23:45:49.891Z,89.10
2017-08-23T23:48:17.388Z,89.40
2017-08-23T23:50:44.864Z,89.40
2017-08-23T23:53:12.359Z,89.10
2017-08-23T23:55:39.840Z,89.00
2017-08-23T23:58:07.340Z,89.40
